createdAt,value
2022-10-01T00:00:16.081Z,6.87
2022-10-01T00:02:44.073Z,4.60
2022-10-01T00:05:13.674Z,3.63
2022-10-01T00:07:47.629Z,6.53
2022-10-01T00:10:16.610Z,5.73
2022-10-01T00:12:51.381Z,6.00
2022-10-01T00:15:19.725Z,6.63
2022-10-01T00:17:47.471Z,5.30
2022-10-01T00:20:20.722Z,7.87
2022-10-01T00:22:48.508Z,8.67
2022-10-01T00:25:16.538Z,5.00
2022-10-01T00:27:48.741Z,6.80
2022-10-01T00:30:16.742Z,7.03
2022-10-01T00:32:44.686Z,8.10
2022-10-01T00:35:17.993Z,6.40
2022-10-01T00:37:45.792Z,9.63
2022-10-01T00:40:13.587Z,8.40
2022-10-01T00:42:45.475Z,5.60
2022-10-01T00:45:15.428Z,6.53
2022-10-01T00:47:51.647Z,8.32
2022-10-01T00:50:26.941Z,8.40
2022-10-01T00:53:01.965Z,9.27
2022-10-01T00:55:34.170Z,8.97
2022-10-01T00:58:07.059Z,6.37
2022-10-01T01:00:36.646Z,7.20
2022-10-01T01:03:07.358Z,8.60
2022-10-01T01:05:39.227Z,9.03
2022-10-01T01:08:09.543Z,5.43
2022-10-01T01:10:52.087Z,11.75
2022-10-01T01:13:27.328Z,6.27
2022-10-01T01:16:04.256Z,10.57
2022-10-01T01:18:41.519Z,8.10
2022-10-01T01:21:29.134Z,10.37
2022-10-01T01:24:26.424Z,9.87
2022-10-01T01:27:05.286Z,7.80
2022-10-01T01:29:41.604Z,8.13
2022-10-01T01:32:17.080Z,8.50
2022-10-01T01:34:51.271Z,8.37
2022-10-01T01:37:22.650Z,7.63
2022-10-01T01:39:56.395Z,12.33
2022-10-01T01:42:31.194Z,8.17
2022-10-01T01:45:03.518Z,10.23
2022-10-01T01:47:36.518Z,9.57
2022-10-01T01:50:08.664Z,8.53
2022-10-01T01:52:36.938Z,8.83
2022-10-01T01:55:09.396Z,8.70
2022-10-01T01:57:41.998Z,11.00
2022-10-01T02:00:14.915Z,9.97
2022-10-01T02:02:50.284Z,8.90
2022-10-01T02:05:25.573Z,9.40
2022-10-01T02:08:27.791Z,9.00
2022-10-01T02:11:38.926Z,9.17
2022-10-01T02:14:23.514Z,5.97
2022-10-01T02:17:01.498Z,9.30
2022-10-01T02:19:36.774Z,6.27
2022-10-01T02:22:10.233Z,9.20
2022-10-01T02:24:44.475Z,9.00
2022-10-01T02:27:18.570Z,8.67
2022-10-01T02:29:49.920Z,10.43
2022-10-01T02:32:22.345Z,6.87
2022-10-01T02:34:55.791Z,7.77
2022-10-01T02:37:29.580Z,9.27
2022-10-01T02:39:59.284Z,8.27
2022-10-01T02:42:30.759Z,7.95
2022-10-01T02:45:02.809Z,9.37
2022-10-01T02:47:39.646Z,5.67
2022-10-01T02:50:10.567Z,6.43
2022-10-01T02:52:45.774Z,10.50
2022-10-01T02:55:19.863Z,11.60
2022-10-01T02:57:47.043Z,8.77
2022-10-01T03:00:18.615Z,8.33
2022-10-01T03:02:51.082Z,7.07
2022-10-01T03:05:20.534Z,6.37
2022-10-01T03:07:51.202Z,8.60
2022-10-01T03:10:19.867Z,7.37
2022-10-01T03:12:49.677Z,7.17
2022-10-01T03:15:21.004Z,6.10
2022-10-01T03:17:53.743Z,6.20
2022-10-01T03:20:22.347Z,4.87
2022-10-01T03:22:50.557Z,7.07
2022-10-01T03:25:22.535Z,7.87
2022-10-01T03:27:50.379Z,5.40
2022-10-01T03:30:18.250Z,6.97
2022-10-01T03:32:50.099Z,5.37
2022-10-01T03:35:20.393Z,5.90
2022-10-01T03:37:48.124Z,5.70
2022-10-01T03:40:20.382Z,7.77
2022-10-01T03:42:48.209Z,8.70
2022-10-01T03:45:16.227Z,4.63
2022-10-01T03:47:55.859Z,10.30
2022-10-01T03:50:25.130Z,7.93
2022-10-01T03:52:55.041Z,5.63
2022-10-01T03:55:24.900Z,4.78
2022-10-01T03:57:52.638Z,6.55
2022-10-01T04:00:22.642Z,7.23
2022-10-01T04:02:52.393Z,6.45
2022-10-01T04:05:20.180Z,6.90
2022-10-01T04:07:51.240Z,6.00
2022-10-01T04:10:21.269Z,5.50
2022-10-01T04:12:49.201Z,6.07
2022-10-01T04:15:19.323Z,6.63
2022-10-01T04:17:49.053Z,5.55
2022-10-01T04:20:16.913Z,8.32
2022-10-01T04:22:47.256Z,7.57
2022-10-01T04:25:18.691Z,6.25
2022-10-01T04:27:58.702Z,6.23
2022-10-01T04:30:30.677Z,4.70
2022-10-01T04:32:58.947Z,5.90
2022-10-01T04:35:27.686Z,6.67
2022-10-01T04:38:03.824Z,5.27
2022-10-01T04:40:38.128Z,6.13
2022-10-01T04:43:10.319Z,3.83
2022-10-01T04:45:40.694Z,4.93
2022-10-01T04:48:10.398Z,4.53
2022-10-01T04:50:40.271Z,6.95
2022-10-01T04:53:10.155Z,6.88
2022-10-01T04:55:39.367Z,6.70
2022-10-01T04:58:09.146Z,6.17
2022-10-01T05:00:39.174Z,6.57
2022-10-01T05:03:07.007Z,7.45
2022-10-01T05:05:37.355Z,5.80
2022-10-01T05:08:05.407Z,8.32
2022-10-01T05:10:33.203Z,6.07
2022-10-01T05:13:04.324Z,6.00
2022-10-01T05:15:35.778Z,6.50
2022-10-01T05:18:03.717Z,9.63
2022-10-01T05:20:35.419Z,9.03
2022-10-01T05:23:03.366Z,8.00
2022-10-01T05:25:31.165Z,8.50
2022-10-01T05:28:06.346Z,11.60
2022-10-01T05:30:36.335Z,10.97
2022-10-01T05:33:05.420Z,10.82
2022-10-01T05:35:35.217Z,10.20
2022-10-01T05:38:05.125Z,11.57
2022-10-01T05:40:33.213Z,12.32
2022-10-01T05:43:05.059Z,7.00
2022-10-01T05:45:33.391Z,8.70
2022-10-01T05:48:02.423Z,7.57
2022-10-01T05:50:36.467Z,9.30
2022-10-01T05:53:04.466Z,10.97
2022-10-01T05:55:33.405Z,9.67
2022-10-01T05:58:08.287Z,8.93
2022-10-01T06:00:36.331Z,7.67
2022-10-01T06:03:07.118Z,10.83
2022-10-01T06:05:37.982Z,8.83
2022-10-01T06:08:06.821Z,13.40
2022-10-01T06:10:36.801Z,11.57
2022-10-01T06:13:10.589Z,12.40
2022-10-01T06:15:39.969Z,12.37
2022-10-01T06:18:11.158Z,19.40
2022-10-01T06:20:40.907Z,14.87
2022-10-01T06:23:12.568Z,11.52
2022-10-01T06:25:45.500Z,18.67
2022-10-01T06:28:15.600Z,12.67
2022-10-01T06:30:43.771Z,7.80
2022-10-01T06:33:14.502Z,16.13
2022-10-01T06:35:46.928Z,17.63
2022-10-01T06:38:17.914Z,15.70
2022-10-01T06:40:52.087Z,11.77
2022-10-01T06:43:23.473Z,10.43
2022-10-01T06:45:53.584Z,11.30
2022-10-01T06:48:22.227Z,10.15
2022-10-01T06:50:55.029Z,10.43
2022-10-01T06:53:22.821Z,11.70
2022-10-01T06:55:51.139Z,10.53
2022-10-01T06:58:25.314Z,10.60
2022-10-01T07:00:58.978Z,9.97
2022-10-01T07:03:31.554Z,8.93
2022-10-01T07:06:07.942Z,8.43
2022-10-01T07:08:35.921Z,10.10
2022-10-01T07:11:05.041Z,11.43
2022-10-01T07:13:34.397Z,7.47
2022-10-01T07:16:06.534Z,7.80
2022-10-01T07:18:34.535Z,6.30
2022-10-01T07:21:22.076Z,5.70
2022-10-01T07:23:51.978Z,5.70
2022-10-01T07:26:19.789Z,6.63
2022-10-01T07:28:49.131Z,5.47
2022-10-01T07:31:19.165Z,3.33
2022-10-01T07:33:47.456Z,5.68
2022-10-01T07:36:17.554Z,4.87
2022-10-01T07:38:45.963Z,4.97
2022-10-01T07:41:14.889Z,3.33
2022-10-01T07:43:43.917Z,4.73
2022-10-01T07:46:13.178Z,3.70
2022-10-01T07:48:41.277Z,5.40
2022-10-01T07:51:13.378Z,4.47
2022-10-01T07:53:41.141Z,3.30
2022-10-01T07:56:08.938Z,3.60
2022-10-01T07:58:57.932Z,3.87
2022-10-01T08:01:27.153Z,2.70
2022-10-01T08:03:57.212Z,2.90
2022-10-01T08:06:25.827Z,3.15
2022-10-01T08:09:02.563Z,2.50
2022-10-01T08:11:31.798Z,3.73
2022-10-01T08:14:18.151Z,3.90
2022-10-01T08:16:47.670Z,4.27
2022-10-01T08:19:18.632Z,2.90
2022-10-01T08:21:46.667Z,3.47
2022-10-01T08:24:16.281Z,3.33
2022-10-01T08:26:44.675Z,1.50
2022-10-01T08:29:16.929Z,3.03
2022-10-01T08:31:52.967Z,3.83
2022-10-01T08:34:20.876Z,4.57
2022-10-01T08:36:52.152Z,2.53
2022-10-01T08:39:20.632Z,2.55
2022-10-01T08:41:59.624Z,2.75
2022-10-01T08:44:34.264Z,3.00
2022-10-01T08:47:09.232Z,2.83
2022-10-01T08:49:43.345Z,3.55
2022-10-01T08:52:21.098Z,2.70
2022-10-01T08:54:54.770Z,2.15
2022-10-01T08:57:29.791Z,3.03
2022-10-01T09:00:02.903Z,2.10
2022-10-01T09:02:35.377Z,4.85
2022-10-01T09:05:08.844Z,2.88
2022-10-01T09:07:57.726Z,3.75
2022-10-01T09:10:40.463Z,3.05
2022-10-01T09:13:27.242Z,1.83
2022-10-01T09:16:05.840Z,3.97
2022-10-01T09:18:47.566Z,1.98
2022-10-01T09:21:23.068Z,3.28
2022-10-01T09:24:03.272Z,2.65
2022-10-01T09:26:34.244Z,1.55
2022-10-01T09:29:06.827Z,4.03
2022-10-01T09:31:42.691Z,2.55
2022-10-01T09:34:15.818Z,2.25
2022-10-01T09:36:55.222Z,3.05
2022-10-01T09:39:30.348Z,3.85
2022-10-01T09:41:59.826Z,4.13
2022-10-01T09:44:31.025Z,3.20
2022-10-01T09:46:59.153Z,2.38
2022-10-01T09:49:34.170Z,3.63
2022-10-01T09:52:07.526Z,2.38
2022-10-01T09:54:43.255Z,3.17
2022-10-01T09:57:15.900Z,3.65
2022-10-01T09:59:54.290Z,1.83
2022-10-01T10:02:29.217Z,1.95
2022-10-01T10:05:08.408Z,4.63
2022-10-01T10:07:39.733Z,2.63
2022-10-01T10:10:25.780Z,3.35
2022-10-01T10:12:57.994Z,3.10
2022-10-01T10:15:33.835Z,4.75
2022-10-01T10:18:08.963Z,4.10
2022-10-01T10:20:41.580Z,3.75
2022-10-01T10:23:10.718Z,3.50
2022-10-01T10:25:41.202Z,3.28
2022-10-01T10:30:54.069Z,4.97
2022-10-01T10:33:26.201Z,4.43
2022-10-01T10:36:09.230Z,5.20
2022-10-01T10:38:37.269Z,4.57
2022-10-01T10:41:06.214Z,5.07
2022-10-01T10:43:38.259Z,7.80
2022-10-01T10:46:08.435Z,3.97
2022-10-01T10:48:39.740Z,4.03
2022-10-01T10:51:10.447Z,3.23
2022-10-01T10:53:47.789Z,3.63
2022-10-01T10:56:22.804Z,5.82
2022-10-01T10:58:53.796Z,2.83
2022-10-01T11:01:29.575Z,2.60
2022-10-01T11:04:02.096Z,3.08
2022-10-01T11:06:31.612Z,2.83
2022-10-01T11:09:02.374Z,2.63
2022-10-01T11:11:47.356Z,4.18
2022-10-01T11:14:34.144Z,3.78
2022-10-01T11:17:18.781Z,3.50
2022-10-01T11:20:03.292Z,2.92
2022-10-01T11:22:50.768Z,3.53
2022-10-01T11:25:34.294Z,3.35
2022-10-01T11:28:16.172Z,3.45
2022-10-01T11:30:57.687Z,4.20
2022-10-01T11:33:36.277Z,4.22
2022-10-01T11:36:15.890Z,4.18
2022-10-01T11:38:53.393Z,6.15
2022-10-01T11:41:29.992Z,4.53
2022-10-01T11:44:05.370Z,6.38
2022-10-01T11:46:58.585Z,5.38
2022-10-01T11:49:41.949Z,8.20
2022-10-01T11:52:19.170Z,6.97
2022-10-01T11:54:58.039Z,8.60
2022-10-01T11:57:45.802Z,7.88
2022-10-01T12:00:16.100Z,6.25
2022-10-01T12:02:52.305Z,5.45
2022-10-01T12:05:25.964Z,5.68
2022-10-01T12:08:02.471Z,4.10
2022-10-01T12:10:47.538Z,4.15
2022-10-01T12:13:23.914Z,5.93
2022-10-01T12:15:59.497Z,6.38
2022-10-01T12:18:33.437Z,4.95
2022-10-01T12:21:06.867Z,6.00
2022-10-01T12:23:51.640Z,4.60
2022-10-01T12:26:34.800Z,5.38
2022-10-01T12:29:10.549Z,6.82
2022-10-01T12:31:45.911Z,5.85
2022-10-01T12:34:22.452Z,5.18
2022-10-01T12:37:06.337Z,6.13
2022-10-01T12:39:46.548Z,4.80
2022-10-01T12:42:36.714Z,9.57
2022-10-01T12:45:20.394Z,3.78
2022-10-01T12:47:58.531Z,4.13
2022-10-01T12:50:37.521Z,4.05
2022-10-01T12:53:19.596Z,3.70
2022-10-01T12:56:01.406Z,4.55
2022-10-01T12:58:49.451Z,5.10
2022-10-01T13:01:27.728Z,4.63
2022-10-01T13:04:29.078Z,4.55
2022-10-01T13:07:31.722Z,7.03
2022-10-01T13:10:14.030Z,3.20
2022-10-01T13:12:57.799Z,5.60
2022-10-01T13:15:31.671Z,4.10
2022-10-01T13:18:09.391Z,4.93
2022-10-01T13:20:43.438Z,3.47
2022-10-01T13:23:19.140Z,4.10
2022-10-01T13:25:56.395Z,3.03
2022-10-01T13:28:30.250Z,4.75
2022-10-01T13:31:04.058Z,3.20
2022-10-01T13:33:34.198Z,6.55
2022-10-01T13:36:03.552Z,4.85
2022-10-01T13:38:44.476Z,4.38
2022-10-01T13:41:20.294Z,4.95
2022-10-01T13:43:58.381Z,4.13
2022-10-01T13:46:31.294Z,2.58
2022-10-01T13:49:09.007Z,3.85
2022-10-01T13:51:38.931Z,4.20
2022-10-01T13:54:24.090Z,3.75
2022-10-01T13:56:52.006Z,3.58
2022-10-01T13:59:31.711Z,3.22
2022-10-01T14:02:01.132Z,2.70
2022-10-01T14:04:37.939Z,4.68
2022-10-01T14:07:15.636Z,4.13
2022-10-01T14:09:46.912Z,3.00
2022-10-01T14:12:45.054Z,2.00
2022-10-01T14:15:37.459Z,2.30
2022-10-01T14:18:15.739Z,4.47
2022-10-01T14:20:56.056Z,3.13
2022-10-01T14:23:35.156Z,5.32
2022-10-01T14:26:15.301Z,2.30
2022-10-01T14:28:59.674Z,2.83
2022-10-01T14:31:38.401Z,2.00
2022-10-01T14:34:35.901Z,3.08
2022-10-01T14:37:12.649Z,4.03
2022-10-01T14:39:44.227Z,3.80
2022-10-01T14:42:18.827Z,3.17
2022-10-01T14:44:48.756Z,4.47
2022-10-01T14:47:23.059Z,3.28
2022-10-01T14:49:55.094Z,3.83
2022-10-01T14:52:29.514Z,5.20
2022-10-01T14:55:02.874Z,4.00
2022-10-01T14:57:36.973Z,5.40
2022-10-01T15:00:10.570Z,3.53
2022-10-01T15:02:47.916Z,5.30
2022-10-01T15:05:27.249Z,3.93
2022-10-01T15:07:56.547Z,4.13
2022-10-01T15:10:28.988Z,5.97
2022-10-01T15:12:57.088Z,5.20
2022-10-01T15:15:29.963Z,6.07
2022-10-01T15:18:00.280Z,5.77
2022-10-01T15:20:28.681Z,3.97
2022-10-01T15:23:01.396Z,5.17
2022-10-01T15:25:34.860Z,6.87
2022-10-01T15:28:02.672Z,5.70
2022-10-01T15:30:30.836Z,7.03
2022-10-01T15:32:59.075Z,7.13
2022-10-01T15:35:27.259Z,6.40
2022-10-01T15:38:00.632Z,7.20
2022-10-01T15:40:30.916Z,7.67
2022-10-01T15:43:37.186Z,7.85
2022-10-01T15:46:19.803Z,6.30
2022-10-01T15:48:48.386Z,8.70
2022-10-01T15:51:24.247Z,7.00
2022-10-01T15:53:56.315Z,9.73
2022-10-01T15:56:25.762Z,7.47
2022-10-01T15:58:56.488Z,11.53
2022-10-01T16:01:31.570Z,9.07
2022-10-01T16:04:05.860Z,10.27
2022-10-01T16:06:40.545Z,8.00
2022-10-01T16:09:15.718Z,10.70
2022-10-01T16:11:57.207Z,8.17
2022-10-01T16:14:32.475Z,11.77
2022-10-01T16:17:33.718Z,9.43
2022-10-01T16:20:03.772Z,8.23
2022-10-01T16:22:33.742Z,10.60
2022-10-01T16:25:07.304Z,12.20
2022-10-01T16:27:45.065Z,13.50
2022-10-01T16:30:21.644Z,10.30
2022-10-01T16:32:49.921Z,9.67
2022-10-01T16:35:24.177Z,14.53
2022-10-01T16:37:54.110Z,10.20
2022-10-01T16:40:28.236Z,10.75
2022-10-01T16:42:56.530Z,11.23
2022-10-01T16:45:26.733Z,11.93
2022-10-01T16:47:56.880Z,11.00
2022-10-01T16:50:25.234Z,11.98
2022-10-01T16:52:56.339Z,12.83
2022-10-01T16:55:31.803Z,12.47
2022-10-01T16:58:02.992Z,12.40
2022-10-01T17:00:31.157Z,13.80
2022-10-01T17:03:01.525Z,13.80
2022-10-01T17:05:33.963Z,14.45
2022-10-01T17:08:05.590Z,14.77
2022-10-01T17:10:40.493Z,14.17
2022-10-01T17:13:20.627Z,10.90
2022-10-01T17:15:51.631Z,12.90
2022-10-01T17:18:20.074Z,15.90
2022-10-01T17:20:48.228Z,14.30
2022-10-01T17:23:20.576Z,15.40
2022-10-01T17:25:51.431Z,15.80
2022-10-01T17:28:21.410Z,12.43
2022-10-01T17:30:50.148Z,15.65
2022-10-01T17:33:20.348Z,19.00
2022-10-01T17:35:51.970Z,15.70
2022-10-01T17:38:21.087Z,19.67
2022-10-01T17:40:55.440Z,22.07
2022-10-01T17:43:27.609Z,29.97
2022-10-01T17:45:59.483Z,18.83
2022-10-01T17:48:30.481Z,16.93
2022-10-01T17:51:03.614Z,18.67
2022-10-01T17:53:36.094Z,20.43
2022-10-01T17:56:09.046Z,20.20
2022-10-01T17:58:44.303Z,20.97
2022-10-01T18:01:16.267Z,22.00
2022-10-01T18:03:44.297Z,25.27
2022-10-01T18:06:15.370Z,21.20
2022-10-01T18:08:58.703Z,23.03
2022-10-01T18:11:28.488Z,15.90
2022-10-01T18:13:57.898Z,19.05
2022-10-01T18:16:26.801Z,18.97
2022-10-01T18:21:46.617Z,17.57
2022-10-01T18:24:17.606Z,18.47
2022-10-01T18:26:46.384Z,16.33
2022-10-01T18:29:21.289Z,19.17
2022-10-01T18:31:53.726Z,20.33
2022-10-01T18:34:29.713Z,19.50
2022-10-01T18:37:01.900Z,20.77
2022-10-01T18:39:34.665Z,22.73
2022-10-01T18:42:11.960Z,18.40
2022-10-01T18:44:43.675Z,18.40
2022-10-01T18:47:24.125Z,19.37
2022-10-01T18:50:20.955Z,20.45
2022-10-01T18:52:59.285Z,17.13
2022-10-01T18:55:45.422Z,18.13
2022-10-01T18:58:35.069Z,19.60
2022-10-01T19:01:22.165Z,17.67
2022-10-01T19:04:23.847Z,20.87
2022-10-01T19:07:10.589Z,18.40
2022-10-01T19:09:51.992Z,19.80
2022-10-01T19:12:39.427Z,19.13
2022-10-01T19:15:18.353Z,18.13
2022-10-01T19:17:58.380Z,19.40
2022-10-01T19:20:45.222Z,17.80
2022-10-01T19:23:43.452Z,18.13
2022-10-01T19:26:19.845Z,22.73
2022-10-01T19:29:06.446Z,20.07
2022-10-01T19:31:45.029Z,17.33
2022-10-01T19:34:21.728Z,19.93
2022-10-01T19:36:56.140Z,17.80
2022-10-01T19:39:29.550Z,20.17
2022-10-01T19:42:02.781Z,18.60
2022-10-01T19:44:38.988Z,16.93
2022-10-01T19:47:25.675Z,19.43
2022-10-01T19:50:00.651Z,18.17
2022-10-01T19:52:42.628Z,19.80
2022-10-01T19:55:18.569Z,25.07
2022-10-01T19:57:48.972Z,21.80
2022-10-01T20:00:22.195Z,18.80
2022-10-01T20:03:05.192Z,18.97
2022-10-01T20:05:43.952Z,17.13
2022-10-01T20:08:17.937Z,20.40
2022-10-01T20:10:53.101Z,20.53
2022-10-01T20:13:33.119Z,22.07
2022-10-01T20:16:14.283Z,19.80
2022-10-01T20:18:52.609Z,20.33
2022-10-01T20:21:38.893Z,21.60
2022-10-01T20:24:20.799Z,20.43
2022-10-01T20:26:54.945Z,20.87
2022-10-01T20:29:38.132Z,22.70
2022-10-01T20:32:19.383Z,17.00
2022-10-01T20:35:02.689Z,22.30
2022-10-01T20:37:45.430Z,19.90
2022-10-01T20:40:24.923Z,24.93
2022-10-01T20:42:57.240Z,22.67
2022-10-01T20:45:29.651Z,23.47
2022-10-01T20:48:02.929Z,22.87
2022-10-01T20:50:35.783Z,25.03
2022-10-01T20:53:17.572Z,27.27
2022-10-01T20:55:50.089Z,23.00
2022-10-01T20:58:23.077Z,26.50
2022-10-01T21:01:00.783Z,26.10
2022-10-01T21:03:36.859Z,24.57
2022-10-01T21:06:07.362Z,25.80
2022-10-01T21:11:17.080Z,24.00
2022-10-01T21:13:55.235Z,25.10
2022-10-01T21:16:48.508Z,31.73
2022-10-01T21:19:33.248Z,27.30
2022-10-01T21:22:14.015Z,32.13
2022-10-01T21:24:59.517Z,27.90
2022-10-01T21:27:48.248Z,33.73
2022-10-01T21:30:21.599Z,31.03
2022-10-01T21:33:05.533Z,26.40
2022-10-01T21:35:47.212Z,33.03
2022-10-01T21:38:28.683Z,32.87
2022-10-01T21:41:41.995Z,36.97
2022-10-01T21:44:34.230Z,36.43
2022-10-01T21:47:14.715Z,38.07
2022-10-01T21:52:29.269Z,33.80
2022-10-01T21:55:23.441Z,37.23
2022-10-01T21:58:08.366Z,33.47
2022-10-01T22:00:36.320Z,31.50
2022-10-01T22:03:14.024Z,35.10
2022-10-01T22:05:50.709Z,37.50
2022-10-01T22:08:31.186Z,34.13
2022-10-01T22:11:03.895Z,33.80
2022-10-01T22:13:43.527Z,35.40
2022-10-01T22:16:15.026Z,38.17
2022-10-01T22:18:49.493Z,39.90
2022-10-01T22:21:24.080Z,34.13
2022-10-01T22:24:02.127Z,42.67
2022-10-01T22:26:32.944Z,40.27
2022-10-01T22:29:10.230Z,46.07
2022-10-01T22:31:40.577Z,41.87
2022-10-01T22:34:17.849Z,43.40
2022-10-01T22:36:51.484Z,47.40
2022-10-01T22:39:27.657Z,39.20
2022-10-01T22:42:02.485Z,41.60
2022-10-01T22:44:35.527Z,39.13
2022-10-01T22:47:25.882Z,44.70
2022-10-01T22:50:11.124Z,37.63
2022-10-01T22:52:49.533Z,37.63
2022-10-01T22:55:28.466Z,33.77
2022-10-01T22:58:13.004Z,33.57
2022-10-01T23:00:52.941Z,32.70
2022-10-01T23:03:33.012Z,27.77
2022-10-01T23:06:14.641Z,28.08
2022-10-01T23:08:51.535Z,24.23
2022-10-01T23:11:28.987Z,23.97
2022-10-01T23:14:05.343Z,26.97
2022-10-01T23:16:45.502Z,24.57
2022-10-01T23:19:30.637Z,28.05
2022-10-01T23:22:10.632Z,27.73
2022-10-01T23:24:53.497Z,24.92
2022-10-01T23:27:36.159Z,22.17
2022-10-01T23:30:11.769Z,21.20
2022-10-01T23:32:59.866Z,31.03
2022-10-01T23:35:42.695Z,22.87
2022-10-01T23:38:30.445Z,27.23
2022-10-01T23:41:05.800Z,31.33
2022-10-01T23:43:41.326Z,39.40
2022-10-01T23:46:16.175Z,30.67
2022-10-01T23:48:53.292Z,30.93
2022-10-01T23:51:26.581Z,38.30
2022-10-01T23:54:00.926Z,36.37
2022-10-01T23:56:50.364Z,35.57
2022-10-01T23:59:28.134Z,44.23
